createdAt,value
2022-12-01T00:02:14.223Z,14.23
2022-12-01T00:04:41.905Z,13.30
2022-12-01T00:07:09.326Z,14.50
2022-12-01T00:09:55.474Z,13.13
2022-12-01T00:12:22.946Z,12.23
2022-12-01T00:14:54.986Z,15.52
2022-12-01T00:17:22.798Z,15.75
2022-12-01T00:19:50.689Z,11.70
2022-12-01T00:22:18.206Z,13.90
2022-12-01T00:24:45.650Z,10.95
2022-12-01T00:27:13.146Z,14.57
2022-12-01T00:29:40.799Z,13.77
2022-12-01T00:32:08.285Z,12.93
2022-12-01T00:34:35.970Z,13.52
2022-12-01T00:37:03.369Z,16.05
2022-12-01T00:39:30.833Z,15.18
2022-12-01T00:41:58.236Z,15.88
2022-12-01T00:44:25.772Z,17.20
2022-12-01T00:46:53.209Z,17.13
2022-12-01T00:49:20.682Z,15.15
2022-12-01T00:51:48.234Z,15.30
2022-12-01T00:54:15.766Z,17.08
2022-12-01T00:56:43.184Z,14.63
2022-12-01T00:59:10.747Z,17.98
2022-12-01T01:01:38.239Z,15.98
2022-12-01T01:04:05.870Z,20.23
2022-12-01T01:06:33.305Z,16.38
2022-12-01T01:09:00.799Z,18.38
2022-12-01T01:11:28.223Z,17.58
2022-12-01T01:13:55.689Z,17.27
2022-12-01T01:16:23.370Z,16.88
2022-12-01T01:18:51.107Z,17.70
2022-12-01T01:21:21.084Z,18.08
2022-12-01T01:23:49.424Z,18.20
2022-12-01T01:26:19.311Z,16.83
2022-12-01T01:28:47.518Z,21.95
2022-12-01T01:31:16.483Z,18.23
2022-12-01T01:33:44.684Z,19.08
2022-12-01T01:36:12.250Z,19.90
2022-12-01T01:38:39.749Z,17.30
2022-12-01T01:41:07.560Z,19.80
2022-12-01T01:43:51.961Z,18.25
2022-12-01T01:46:19.464Z,21.75
2022-12-01T01:48:49.055Z,18.70
2022-12-01T01:51:17.722Z,20.10
2022-12-01T01:53:46.297Z,17.23
2022-12-01T01:56:13.861Z,17.88
2022-12-01T01:58:41.868Z,17.55
2022-12-01T02:01:09.440Z,21.13
2022-12-01T02:03:38.059Z,16.83
2022-12-01T02:06:07.221Z,20.55
2022-12-01T02:08:36.228Z,20.20
2022-12-01T02:11:13.042Z,19.60
2022-12-01T02:13:58.913Z,20.13
2022-12-01T02:16:46.621Z,22.15
2022-12-01T02:19:31.393Z,21.77
2022-12-01T02:22:01.917Z,22.17
2022-12-01T02:24:47.728Z,19.90
2022-12-01T02:27:38.534Z,20.08
2022-12-01T02:30:11.747Z,18.23
2022-12-01T02:32:42.434Z,17.80
2022-12-01T02:35:15.710Z,14.80
2022-12-01T02:37:43.177Z,18.25
2022-12-01T02:40:14.158Z,18.00
2022-12-01T02:42:49.711Z,17.40
2022-12-01T02:45:29.752Z,18.98
2022-12-01T02:48:00.950Z,14.20
2022-12-01T02:50:29.974Z,18.45
2022-12-01T02:52:57.840Z,18.27
2022-12-01T02:55:25.465Z,18.67
2022-12-01T02:57:52.896Z,19.83
2022-12-01T03:00:20.718Z,17.90
2022-12-01T03:03:17.492Z,16.70
2022-12-01T03:06:12.460Z,21.27
2022-12-01T03:08:51.243Z,16.27
2022-12-01T03:11:30.010Z,18.92
2022-12-01T03:14:15.610Z,16.92
2022-12-01T03:16:50.929Z,21.00
2022-12-01T03:21:50.471Z,15.88
2022-12-01T03:24:20.155Z,15.05
2022-12-01T03:26:49.617Z,19.35
2022-12-01T03:29:19.198Z,16.73
2022-12-01T03:31:49.837Z,17.70
2022-12-01T03:34:35.545Z,17.45
2022-12-01T03:39:33.413Z,15.25
2022-12-01T03:42:03.269Z,13.38
2022-12-01T03:44:33.770Z,18.85
2022-12-01T03:47:04.783Z,16.15
2022-12-01T03:49:32.567Z,18.52
2022-12-01T03:51:59.973Z,16.83
2022-12-01T03:54:32.431Z,17.85
2022-12-01T03:57:03.537Z,17.23
2022-12-01T03:59:31.826Z,17.42
2022-12-01T04:01:59.283Z,19.63
2022-12-01T04:04:26.732Z,17.73
2022-12-01T04:06:54.252Z,18.98
2022-12-01T04:09:21.789Z,21.63
2022-12-01T04:12:07.763Z,16.92
2022-12-01T04:14:35.235Z,16.95
2022-12-01T04:17:02.627Z,19.08
2022-12-01T04:19:30.040Z,18.95
2022-12-01T04:21:57.505Z,20.80
2022-12-01T04:24:24.930Z,17.30
2022-12-01T04:26:52.454Z,20.05
2022-12-01T04:29:19.901Z,18.92
2022-12-01T04:31:47.394Z,21.80
2022-12-01T04:34:14.844Z,19.80
2022-12-01T04:36:42.302Z,21.70
2022-12-01T04:39:09.659Z,20.92
2022-12-01T04:41:37.064Z,18.30
2022-12-01T04:44:04.498Z,20.42
2022-12-01T04:46:31.942Z,20.33
2022-12-01T04:48:59.425Z,19.17
2022-12-01T04:51:26.798Z,20.55
2022-12-01T04:53:54.317Z,17.65
2022-12-01T04:56:22.065Z,19.25
2022-12-01T04:58:49.883Z,19.90
2022-12-01T05:01:18.789Z,15.60
2022-12-01T05:03:49.486Z,19.17
2022-12-01T05:06:18.690Z,17.75
2022-12-01T05:08:46.360Z,18.52
2022-12-01T05:11:16.705Z,17.95
2022-12-01T05:13:45.299Z,19.63
2022-12-01T05:16:17.733Z,22.73
2022-12-01T05:18:48.546Z,21.92
2022-12-01T05:21:16.169Z,17.58
2022-12-01T05:23:45.514Z,16.10
2022-12-01T05:26:13.017Z,23.60
2022-12-01T05:28:41.087Z,22.65
2022-12-01T05:31:08.684Z,19.17
2022-12-01T05:33:36.202Z,23.00
2022-12-01T05:36:03.682Z,23.08
2022-12-01T05:38:31.079Z,24.83
2022-12-01T05:40:58.520Z,22.88
2022-12-01T05:43:29.390Z,25.55
2022-12-01T05:45:57.869Z,27.80
2022-12-01T05:48:25.325Z,24.25
2022-12-01T05:50:52.883Z,28.08
2022-12-01T05:53:20.434Z,28.65
2022-12-01T05:55:51.930Z,31.75
2022-12-01T05:58:19.529Z,36.75
2022-12-01T06:00:46.909Z,27.83
2022-12-01T06:03:14.720Z,30.50
2022-12-01T06:05:42.353Z,25.60
2022-12-01T06:08:09.864Z,22.50
2022-12-01T06:10:37.222Z,30.00
2022-12-01T06:13:04.705Z,26.25
2022-12-01T06:15:32.083Z,25.38
2022-12-01T06:17:59.914Z,28.40
2022-12-01T06:20:27.565Z,26.05
2022-12-01T06:22:55.134Z,24.63
2022-12-01T06:25:22.565Z,26.77
2022-12-01T06:27:49.989Z,31.23
2022-12-01T06:30:17.560Z,27.15
2022-12-01T06:32:44.975Z,24.00
2022-12-01T06:35:12.793Z,27.55
2022-12-01T06:37:40.210Z,26.42
2022-12-01T06:40:08.153Z,29.30
2022-12-01T06:42:35.580Z,34.20
2022-12-01T06:45:03.127Z,28.15
2022-12-01T06:47:30.515Z,28.30
2022-12-01T06:49:58.022Z,31.52
2022-12-01T06:52:25.397Z,26.83
2022-12-01T06:54:52.856Z,30.80
2022-12-01T06:57:20.541Z,26.73
2022-12-01T06:59:48.625Z,25.67
2022-12-01T07:02:17.127Z,30.60
2022-12-01T07:04:44.602Z,26.73
2022-12-01T07:07:12.723Z,25.80
2022-12-01T07:09:40.453Z,26.95
2022-12-01T07:12:08.222Z,22.10
2022-12-01T07:14:35.972Z,26.27
2022-12-01T07:17:03.464Z,27.08
2022-12-01T07:19:31.075Z,24.42
2022-12-01T07:21:58.499Z,24.33
2022-12-01T07:24:25.858Z,26.88
2022-12-01T07:26:53.378Z,24.67
2022-12-01T07:29:20.825Z,26.23
2022-12-01T07:31:48.311Z,20.95
2022-12-01T07:34:15.767Z,20.70
2022-12-01T07:36:43.351Z,24.55
2022-12-01T07:39:10.740Z,24.95
2022-12-01T07:41:38.245Z,19.52
2022-12-01T07:44:05.718Z,22.63
2022-12-01T07:46:33.219Z,22.33
2022-12-01T07:49:00.679Z,21.77
2022-12-01T07:51:28.421Z,25.45
2022-12-01T07:53:56.047Z,22.52
2022-12-01T07:56:23.731Z,18.77
2022-12-01T07:58:51.534Z,20.30
2022-12-01T08:01:20.491Z,19.20
2022-12-01T08:03:51.379Z,21.25
2022-12-01T08:06:19.584Z,20.85
2022-12-01T08:08:47.425Z,20.67
2022-12-01T08:11:16.617Z,21.55
2022-12-01T08:13:44.560Z,17.65
2022-12-01T08:16:13.760Z,21.73
2022-12-01T08:18:41.868Z,24.55
2022-12-01T08:21:10.299Z,18.60
2022-12-01T08:23:37.807Z,24.70
2022-12-01T08:26:09.530Z,29.48
2022-12-01T08:28:37.493Z,21.27
2022-12-01T08:31:09.354Z,18.30
2022-12-01T08:33:37.407Z,21.67
2022-12-01T08:36:05.927Z,20.08
2022-12-01T08:38:33.583Z,21.52
2022-12-01T08:41:04.647Z,21.13
2022-12-01T08:43:56.757Z,26.10
2022-12-01T08:46:19.808Z,15.82
2022-12-01T08:48:47.566Z,21.42
2022-12-01T08:51:16.188Z,17.75
2022-12-01T08:53:45.820Z,15.98
2022-12-01T08:56:15.684Z,19.70
2022-12-01T08:58:43.411Z,17.08
2022-12-01T09:01:12.810Z,19.55
2022-12-01T09:03:40.651Z,20.52
2022-12-01T09:06:09.243Z,14.75
2022-12-01T09:08:37.038Z,16.00
2022-12-01T09:11:08.722Z,17.50
2022-12-01T09:13:37.012Z,15.30
2022-12-01T09:16:06.063Z,17.65
2022-12-01T09:18:33.593Z,19.83
2022-12-01T09:21:01.388Z,19.42
2022-12-01T09:23:28.857Z,21.83
2022-12-01T09:25:56.248Z,19.08
2022-12-01T09:28:24.080Z,17.88
2022-12-01T09:30:51.470Z,16.23
2022-12-01T09:33:19.007Z,19.00
2022-12-01T09:35:46.383Z,15.32
2022-12-01T09:38:13.840Z,13.32
2022-12-01T09:40:43.513Z,17.80
2022-12-01T09:43:20.763Z,16.25
2022-12-01T09:45:51.051Z,18.00
2022-12-01T09:48:25.848Z,16.77
2022-12-01T09:50:53.909Z,45.22
2022-12-01T09:53:23.150Z,14.68
2022-12-01T09:55:50.977Z,28.70
2022-12-01T09:58:23.895Z,14.02
2022-12-01T10:00:52.293Z,15.63
2022-12-01T10:03:32.889Z,15.63
2022-12-01T10:09:06.146Z,18.15
2022-12-01T10:11:40.427Z,37.67
2022-12-01T10:14:15.152Z,13.68
2022-12-01T10:16:50.653Z,12.38
2022-12-01T10:19:29.526Z,12.82
2022-12-01T10:22:15.802Z,10.30
2022-12-01T10:24:49.207Z,11.63
2022-12-01T10:27:16.643Z,12.38
2022-12-01T10:29:47.961Z,11.55
2022-12-01T10:32:18.949Z,10.43
2022-12-01T10:34:47.981Z,12.40
2022-12-01T10:37:18.223Z,13.02
2022-12-01T10:39:47.387Z,9.18
2022-12-01T10:42:15.375Z,10.68
2022-12-01T10:44:43.370Z,10.43
2022-12-01T10:47:20.255Z,10.20
2022-12-01T10:49:48.542Z,11.25
2022-12-01T10:52:31.148Z,10.20
2022-12-01T10:54:58.662Z,10.82
2022-12-01T10:57:27.313Z,9.52
2022-12-01T10:59:54.790Z,9.50
2022-12-01T11:02:23.625Z,9.38
2022-12-01T11:05:06.183Z,10.10
2022-12-01T11:07:33.714Z,12.68
2022-12-01T11:10:07.154Z,13.45
2022-12-01T11:12:34.900Z,10.70
2022-12-01T11:15:02.883Z,9.40
2022-12-01T11:17:33.350Z,12.55
2022-12-01T11:20:17.728Z,9.52
2022-12-01T11:22:45.231Z,10.68
2022-12-01T11:25:20.301Z,7.65
2022-12-01T11:27:50.581Z,7.72
2022-12-01T11:30:29.421Z,8.10
2022-12-01T11:32:59.024Z,8.38
2022-12-01T11:35:31.136Z,7.78
2022-12-01T11:40:49.631Z,6.10
2022-12-01T11:43:36.732Z,6.78
2022-12-01T11:46:06.281Z,5.78
2022-12-01T11:48:35.362Z,6.93
2022-12-01T11:51:09.084Z,6.13
2022-12-01T11:53:41.121Z,9.23
2022-12-01T11:56:17.592Z,8.68
2022-12-01T11:58:46.223Z,15.27
2022-12-01T12:01:22.110Z,6.68
2022-12-01T12:03:59.619Z,7.68
2022-12-01T12:06:45.503Z,7.90
2022-12-01T12:09:44.718Z,6.30
2022-12-01T12:12:31.027Z,7.30
2022-12-01T12:17:28.615Z,9.55
2022-12-01T12:20:12.027Z,6.15
2022-12-01T12:22:39.947Z,6.43
2022-12-01T12:25:13.375Z,8.77
2022-12-01T12:27:47.035Z,13.15
2022-12-01T12:30:19.968Z,15.70
2022-12-01T12:33:02.578Z,10.25
2022-12-01T12:35:49.939Z,8.13
2022-12-01T12:38:28.475Z,17.33
2022-12-01T12:40:58.828Z,8.32
2022-12-01T12:43:29.414Z,12.55
2022-12-01T12:46:06.198Z,8.23
2022-12-01T12:48:35.989Z,8.88
2022-12-01T12:51:08.342Z,7.70
2022-12-01T12:53:58.088Z,9.88
2022-12-01T12:56:26.606Z,8.15
2022-12-01T12:59:11.779Z,7.53
2022-12-01T13:02:02.256Z,6.70
2022-12-01T13:04:40.796Z,8.57
2022-12-01T13:07:28.748Z,10.63
2022-12-01T13:10:01.006Z,12.27
2022-12-01T13:12:33.093Z,9.55
2022-12-01T13:15:20.862Z,9.73
2022-12-01T13:18:09.173Z,9.75
2022-12-01T13:20:38.232Z,10.27
2022-12-01T13:23:05.941Z,11.95
2022-12-01T13:25:35.747Z,10.02
2022-12-01T13:28:03.962Z,7.70
2022-12-01T13:30:31.371Z,8.60
2022-12-01T13:33:00.987Z,8.25
2022-12-01T13:35:31.661Z,8.43
2022-12-01T13:38:18.433Z,8.95
2022-12-01T13:40:46.021Z,9.23
2022-12-01T13:43:20.643Z,13.70
2022-12-01T13:45:49.184Z,10.40
2022-12-01T13:48:48.957Z,10.05
2022-12-01T13:51:16.719Z,11.07
2022-12-01T13:54:04.427Z,9.05
2022-12-01T13:56:39.203Z,12.73
2022-12-01T13:59:28.159Z,12.07
2022-12-01T14:02:07.883Z,14.68
2022-12-01T14:04:37.120Z,18.80
2022-12-01T14:07:15.643Z,15.32
2022-12-01T14:09:44.190Z,13.20
2022-12-01T14:12:23.007Z,17.15
2022-12-01T14:14:54.953Z,15.02
2022-12-01T14:17:27.516Z,15.48
2022-12-01T14:19:55.586Z,12.57
2022-12-01T14:22:33.561Z,10.95
2022-12-01T14:25:01.486Z,12.75
2022-12-01T14:27:35.079Z,18.20
2022-12-01T14:30:21.502Z,14.30
2022-12-01T14:32:48.939Z,19.15
2022-12-01T14:35:16.769Z,17.70
2022-12-01T14:37:45.047Z,28.65
2022-12-01T14:40:19.888Z,36.33
2022-12-01T14:43:08.090Z,22.80
2022-12-01T14:45:56.165Z,27.02
2022-12-01T14:48:27.696Z,21.10
2022-12-01T14:51:02.030Z,24.30
2022-12-01T14:53:32.535Z,32.17
2022-12-01T14:56:08.263Z,25.27
2022-12-01T14:58:35.873Z,25.75
2022-12-01T15:01:11.331Z,22.92
2022-12-01T15:03:49.516Z,22.25
2022-12-01T15:06:18.680Z,35.85
2022-12-01T15:09:03.954Z,25.33
2022-12-01T15:13:59.209Z,19.33
2022-12-01T15:16:29.315Z,25.05
2022-12-01T15:18:57.036Z,35.47
2022-12-01T15:21:24.431Z,27.88
2022-12-01T15:23:57.973Z,28.08
2022-12-01T15:26:27.258Z,27.13
2022-12-01T15:29:06.739Z,55.38
2022-12-01T15:31:35.811Z,49.80
2022-12-01T15:34:03.542Z,40.03
2022-12-01T15:36:31.101Z,39.70
2022-12-01T15:39:06.788Z,47.45
2022-12-01T15:41:35.359Z,102.65
2022-12-01T15:44:05.400Z,47.38
2022-12-01T15:46:37.287Z,35.78
2022-12-01T15:49:29.421Z,27.77
2022-12-01T15:52:05.830Z,25.40
2022-12-01T15:54:33.547Z,31.77
2022-12-01T15:57:01.271Z,32.03
2022-12-01T15:59:34.717Z,34.78
2022-12-01T16:02:07.120Z,34.20
2022-12-01T16:04:35.508Z,40.30
2022-12-01T16:07:05.656Z,34.85
2022-12-01T16:09:37.544Z,32.88
2022-12-01T16:12:08.047Z,23.90
2022-12-01T16:14:36.415Z,26.63
2022-12-01T16:17:05.474Z,31.13
2022-12-01T16:19:33.975Z,31.55
2022-12-01T16:22:04.992Z,26.63
2022-12-01T16:24:37.289Z,26.58
2022-12-01T16:27:09.570Z,27.10
2022-12-01T16:29:57.240Z,27.60
2022-12-01T16:32:24.748Z,27.02
2022-12-01T16:34:53.070Z,29.30
2022-12-01T16:37:24.379Z,24.77
2022-12-01T16:39:51.836Z,29.30
2022-12-01T16:42:23.466Z,33.80
2022-12-01T16:44:52.160Z,26.33
2022-12-01T16:47:20.367Z,27.25
2022-12-01T16:49:47.890Z,32.30
2022-12-01T16:52:43.252Z,29.08
2022-12-01T16:55:02.921Z,27.88
2022-12-01T16:57:30.306Z,33.35
2022-12-01T16:59:57.864Z,35.90
2022-12-01T17:02:25.301Z,27.98
2022-12-01T17:04:52.976Z,35.28
2022-12-01T17:07:20.790Z,30.33
2022-12-01T17:09:48.237Z,26.17
2022-12-01T17:12:15.659Z,29.75
2022-12-01T17:14:43.133Z,25.38
2022-12-01T17:17:10.644Z,28.42
2022-12-01T17:19:38.066Z,26.73
2022-12-01T17:22:05.490Z,25.17
2022-12-01T17:24:33.027Z,29.55
2022-12-01T17:27:00.951Z,28.27
2022-12-01T17:29:28.347Z,34.20
2022-12-01T17:31:55.857Z,31.00
2022-12-01T17:34:23.262Z,28.25
2022-12-01T17:36:53.648Z,37.53
2022-12-01T17:39:21.116Z,34.05
2022-12-01T17:41:48.551Z,32.15
2022-12-01T17:44:16.057Z,32.65
2022-12-01T17:46:43.582Z,33.83
2022-12-01T17:49:12.044Z,30.65
2022-12-01T17:51:39.648Z,29.38
2022-12-01T17:54:07.697Z,28.63
2022-12-01T17:56:35.288Z,28.98
2022-12-01T17:59:03.168Z,25.73
2022-12-01T18:01:30.864Z,25.52
2022-12-01T18:03:59.203Z,25.15
2022-12-01T18:06:27.109Z,23.05
2022-12-01T18:08:55.090Z,21.65
2022-12-01T18:11:23.913Z,18.52
2022-12-01T18:13:52.061Z,21.60
2022-12-01T18:16:24.935Z,23.90
2022-12-01T18:18:52.829Z,21.27
2022-12-01T18:21:21.213Z,22.45
2022-12-01T18:23:52.354Z,21.23
2022-12-01T18:26:22.082Z,18.40
2022-12-01T18:28:56.673Z,20.25
2022-12-01T18:31:24.498Z,18.77
2022-12-01T18:33:51.969Z,20.90
2022-12-01T18:36:21.176Z,25.48
2022-12-01T18:38:48.883Z,24.05
2022-12-01T18:41:16.791Z,24.35
2022-12-01T18:43:44.515Z,23.10
2022-12-01T18:46:13.453Z,27.52
2022-12-01T18:48:45.346Z,27.05
2022-12-01T18:51:12.975Z,25.85
2022-12-01T18:53:40.519Z,22.17
2022-12-01T18:56:11.701Z,26.13
2022-12-01T18:58:39.571Z,22.33
2022-12-01T19:01:40.211Z,23.73
2022-12-01T19:04:09.154Z,22.00
2022-12-01T19:06:38.290Z,25.25
2022-12-01T19:09:07.009Z,19.60
2022-12-01T19:11:34.494Z,17.30
2022-12-01T19:14:03.666Z,22.02
2022-12-01T19:16:31.259Z,18.17
2022-12-01T19:18:59.073Z,23.27
2022-12-01T19:21:26.731Z,17.45
2022-12-01T19:23:54.228Z,20.48
2022-12-01T19:26:22.355Z,18.65
2022-12-01T19:28:50.502Z,20.95
2022-12-01T19:31:23.655Z,18.20
2022-12-01T19:33:51.807Z,19.33
2022-12-01T19:36:20.866Z,22.02
2022-12-01T19:38:48.576Z,17.67
2022-12-01T19:41:16.297Z,16.15
2022-12-01T19:43:44.062Z,19.60
2022-12-01T19:46:16.159Z,13.25
2022-12-01T19:48:45.111Z,16.85
2022-12-01T19:51:19.452Z,15.40
2022-12-01T19:53:47.117Z,14.18
2022-12-01T19:56:14.521Z,13.88
2022-12-01T19:58:42.095Z,15.18
2022-12-01T20:01:11.394Z,18.00
2022-12-01T20:03:40.599Z,16.00
2022-12-01T20:06:09.258Z,16.08
2022-12-01T20:08:37.526Z,15.88
2022-12-01T20:11:05.817Z,16.52
2022-12-01T20:13:38.780Z,16.25
2022-12-01T20:16:10.866Z,16.45
2022-12-01T20:18:38.703Z,21.20
2022-12-01T20:21:10.758Z,20.05
2022-12-01T20:23:38.297Z,14.13
2022-12-01T20:26:07.408Z,17.75
2022-12-01T20:28:35.801Z,60.63
2022-12-01T20:31:03.319Z,19.25
2022-12-01T20:33:31.178Z,29.95
2022-12-01T20:35:58.652Z,26.27
2022-12-01T20:38:27.813Z,11.23
2022-12-01T20:40:55.665Z,16.95
2022-12-01T20:43:23.190Z,10.70
2022-12-01T20:45:50.761Z,10.73
2022-12-01T20:48:18.370Z,11.07
2022-12-01T20:50:46.015Z,11.52
2022-12-01T20:53:13.527Z,11.77
2022-12-01T20:55:41.049Z,10.23
2022-12-01T20:58:11.474Z,11.23
2022-12-01T21:00:39.961Z,12.45
2022-12-01T21:03:07.656Z,13.32
2022-12-01T21:05:35.300Z,13.68
2022-12-01T21:08:03.261Z,12.30
2022-12-01T21:10:30.815Z,13.13
2022-12-01T21:13:23.883Z,13.27
2022-12-01T21:15:58.582Z,13.32
2022-12-01T21:18:31.832Z,13.68
2022-12-01T21:21:07.956Z,14.73
2022-12-01T21:23:35.454Z,13.02
2022-12-01T21:26:02.959Z,15.80
2022-12-01T21:28:30.552Z,15.32
2022-12-01T21:31:18.222Z,14.60
2022-12-01T21:33:46.241Z,15.85
2022-12-01T21:36:18.005Z,17.88
2022-12-01T21:38:45.664Z,16.33
2022-12-01T21:41:25.103Z,19.55
2022-12-01T21:43:52.673Z,17.13
2022-12-01T21:46:20.168Z,16.48
2022-12-01T21:48:47.838Z,16.83
2022-12-01T21:51:15.198Z,18.13
2022-12-01T21:53:42.639Z,21.15
2022-12-01T21:56:16.278Z,18.48
2022-12-01T21:58:44.689Z,16.23
2022-12-01T22:01:31.545Z,15.88
2022-12-01T22:04:02.338Z,16.05
2022-12-01T22:06:40.667Z,16.02
2022-12-01T22:09:27.364Z,16.88
2022-12-01T22:11:55.965Z,17.90
2022-12-01T22:14:24.800Z,17.80
2022-12-01T22:16:52.149Z,22.02
2022-12-01T22:19:36.298Z,17.17
2022-12-01T22:22:09.453Z,15.77
2022-12-01T22:24:41.722Z,15.68
2022-12-01T22:27:29.250Z,17.02
2022-12-01T22:29:58.425Z,14.65
2022-12-01T22:32:28.823Z,17.80
2022-12-01T22:34:58.568Z,16.75
2022-12-01T22:37:34.889Z,17.58
2022-12-01T22:40:23.297Z,17.73
2022-12-01T22:42:50.706Z,16.10
2022-12-01T22:45:23.768Z,16.80
2022-12-01T22:47:52.065Z,16.27
2022-12-01T22:50:28.593Z,15.48
2022-12-01T22:53:11.778Z,15.27
2022-12-01T22:55:40.335Z,15.65
2022-12-01T22:58:26.587Z,16.15
2022-12-01T23:00:57.720Z,14.18
2022-12-01T23:03:25.476Z,17.25
2022-12-01T23:05:56.050Z,16.00
2022-12-01T23:08:24.030Z,16.58
2022-12-01T23:10:51.740Z,16.67
2022-12-01T23:13:23.614Z,15.30
2022-12-01T23:15:52.962Z,16.40
2022-12-01T23:18:23.507Z,17.60
2022-12-01T23:20:52.137Z,15.13
2022-12-01T23:23:20.823Z,16.63
2022-12-01T23:25:49.863Z,16.20
2022-12-01T23:28:17.546Z,16.13
2022-12-01T23:30:45.793Z,16.08
2022-12-01T23:33:16.190Z,17.85
2022-12-01T23:35:46.644Z,20.27
2022-12-01T23:38:16.603Z,18.85
2022-12-01T23:40:44.519Z,19.63
2022-12-01T23:43:20.440Z,18.85
2022-12-01T23:45:49.037Z,17.17
2022-12-01T23:48:25.714Z,19.67
2022-12-01T23:50:54.202Z,18.80
2022-12-01T23:53:24.744Z,18.77
2022-12-01T23:55:52.137Z,19.80
2022-12-01T23:58:19.519Z,17.88
